sensor_id;sensor_type;location;lat;lon;timestamp;temperature;humidity
69054;DHT22;56125;52.242;4.756;2024-02-21T00:03:19;18.40;52.80
69054;DHT22;56125;52.242;4.756;2024-02-21T00:08:20;18.40;52.90
69054;DHT22;56125;52.242;4.756;2024-02-21T00:13:21;18.40;52.80
69054;DHT22;56125;52.242;4.756;2024-02-21T00:18:23;18.70;53.00
69054;DHT22;56125;52.242;4.756;2024-02-21T00:23:24;18.40;52.80
69054;DHT22;56125;52.242;4.756;2024-02-21T00:28:25;18.40;52.90
69054;DHT22;56125;52.242;4.756;2024-02-21T00:33:26;18.40;52.90
69054;DHT22;56125;52.242;4.756;2024-02-21T00:38:27;19.00;53.40
69054;DHT22;56125;52.242;4.756;2024-02-21T00:43:28;18.40;52.90
69054;DHT22;56125;52.242;4.756;2024-02-21T00:48:29;18.30;53.00
69054;DHT22;56125;52.242;4.756;2024-02-21T00:53:30;18.30;52.90
69054;DHT22;56125;52.242;4.756;2024-02-21T00:58:31;18.30;53.10
69054;DHT22;56125;52.242;4.756;2024-02-21T01:03:32;18.10;52.80
69054;DHT22;56125;52.242;4.756;2024-02-21T01:08:33;18.30;53.00
69054;DHT22;56125;52.242;4.756;2024-02-21T01:13:34;18.30;53.00
69054;DHT22;56125;52.242;4.756;2024-02-21T01:18:37;18.30;53.10
69054;DHT22;56125;52.242;4.756;2024-02-21T01:23:40;18.30;53.10
69054;DHT22;56125;52.242;4.756;2024-02-21T01:28:41;18.30;53.10
69054;DHT22;56125;52.242;4.756;2024-02-21T01:33:42;18.20;53.10
69054;DHT22;56125;52.242;4.756;2024-02-21T01:38:43;18.90;53.50
69054;DHT22;56125;52.242;4.756;2024-02-21T01:43:44;18.30;53.20
69054;DHT22;56125;52.242;4.756;2024-02-21T01:48:46;17.50;52.90
69054;DHT22;56125;52.242;4.756;2024-02-21T01:53:47;18.20;53.20
69054;DHT22;56125;52.242;4.756;2024-02-21T01:58:49;18.20;53.20
69054;DHT22;56125;52.242;4.756;2024-02-21T02:03:50;18.20;53.20
69054;DHT22;56125;52.242;4.756;2024-02-21T02:08:52;18.20;53.40
69054;DHT22;56125;52.242;4.756;2024-02-21T02:13:54;18.10;53.50
69054;DHT22;56125;52.242;4.756;2024-02-21T02:18:55;18.10;53.50
69054;DHT22;56125;52.242;4.756;2024-02-21T02:23:56;18.10;53.50
69054;DHT22;56125;52.242;4.756;2024-02-21T02:28:58;18.10;53.60
69054;DHT22;56125;52.242;4.756;2024-02-21T02:33:59;18.10;53.90
69054;DHT22;56125;52.242;4.756;2024-02-21T02:39:00;18.00;53.60
69054;DHT22;56125;52.242;4.756;2024-02-21T02:44:01;18.00;53.70
69054;DHT22;56125;52.242;4.756;2024-02-21T02:49:02;18.00;53.90
69054;DHT22;56125;52.242;4.756;2024-02-21T02:54:03;18.00;53.70
69054;DHT22;56125;52.242;4.756;2024-02-21T02:59:04;17.90;53.70
69054;DHT22;56125;52.242;4.756;2024-02-21T03:04:05;17.90;53.80
69054;DHT22;56125;52.242;4.756;2024-02-21T03:09:06;17.90;53.80
69054;DHT22;56125;52.242;4.756;2024-02-21T03:14:09;17.90;53.90
69054;DHT22;56125;52.242;4.756;2024-02-21T03:19:10;17.90;53.90
69054;DHT22;56125;52.242;4.756;2024-02-21T03:24:11;17.90;53.80
69054;DHT22;56125;52.242;4.756;2024-02-21T03:29:14;17.90;53.90
69054;DHT22;56125;52.242;4.756;2024-02-21T03:34:15;17.90;53.90
69054;DHT22;56125;52.242;4.756;2024-02-21T03:39:16;17.90;53.90
69054;DHT22;56125;52.242;4.756;2024-02-21T03:44:17;17.80;53.90
69054;DHT22;56125;52.242;4.756;2024-02-21T03:49:18;17.80;54.90
69054;DHT22;56125;52.242;4.756;2024-02-21T03:54:19;17.80;53.90
69054;DHT22;56125;52.242;4.756;2024-02-21T03:59:22;17.80;54.10
69054;DHT22;56125;52.242;4.756;2024-02-21T04:04:23;17.80;54.00
69054;DHT22;56125;52.242;4.756;2024-02-21T04:09:24;17.80;54.10
69054;DHT22;56125;52.242;4.756;2024-02-21T04:14:25;17.80;54.00
69054;DHT22;56125;52.242;4.756;2024-02-21T04:19:26;17.80;54.10
69054;DHT22;56125;52.242;4.756;2024-02-21T04:24:27;17.70;53.90
69054;DHT22;56125;52.242;4.756;2024-02-21T04:29:28;17.80;54.00
69054;DHT22;56125;52.242;4.756;2024-02-21T04:34:29;17.80;54.10
69054;DHT22;56125;52.242;4.756;2024-02-21T04:39:30;17.70;54.00
69054;DHT22;56125;52.242;4.756;2024-02-21T04:44:31;17.70;54.00
69054;DHT22;56125;52.242;4.756;2024-02-21T04:49:33;17.70;54.10
69054;DHT22;56125;52.242;4.756;2024-02-21T04:54:34;17.70;54.10
69054;DHT22;56125;52.242;4.756;2024-02-21T04:59:38;17.70;54.20
69054;DHT22;56125;52.242;4.756;2024-02-21T05:04:39;17.70;54.10
69054;DHT22;56125;52.242;4.756;2024-02-21T05:09:42;17.70;55.20
69054;DHT22;56125;52.242;4.756;2024-02-21T05:14:44;17.70;54.10
69054;DHT22;56125;52.242;4.756;2024-02-21T05:19:45;17.70;54.10
69054;DHT22;56125;52.242;4.756;2024-02-21T05:24:46;17.70;54.20
69054;DHT22;56125;52.242;4.756;2024-02-21T05:29:47;17.70;54.10
69054;DHT22;56125;52.242;4.756;2024-02-21T05:34:49;17.70;54.20
69054;DHT22;56125;52.242;4.756;2024-02-21T05:39:51;17.70;54.10
69054;DHT22;56125;52.242;4.756;2024-02-21T05:44:52;17.70;54.10
69054;DHT22;56125;52.242;4.756;2024-02-21T05:49:53;17.70;54.10
69054;DHT22;56125;52.242;4.756;2024-02-21T05:54:55;17.70;54.10
69054;DHT22;56125;52.242;4.756;2024-02-21T05:59:56;17.70;54.00
69054;DHT22;56125;52.242;4.756;2024-02-21T06:04:57;17.60;54.10
69054;DHT22;56125;52.242;4.756;2024-02-21T06:09:58;17.60;54.00
69054;DHT22;56125;52.242;4.756;2024-02-21T06:14:59;17.60;54.00
69054;DHT22;56125;52.242;4.756;2024-02-21T06:20:00;17.60;54.10
69054;DHT22;56125;52.242;4.756;2024-02-21T06:25:01;17.60;54.40
69054;DHT22;56125;52.242;4.756;2024-02-21T06:30:03;17.60;54.00
69054;DHT22;56125;52.242;4.756;2024-02-21T06:35:05;17.60;53.90
69054;DHT22;56125;52.242;4.756;2024-02-21T06:40:06;17.20;53.80
69054;DHT22;56125;52.242;4.756;2024-02-21T06:45:08;17.60;54.00
69054;DHT22;56125;52.242;4.756;2024-02-21T06:50:09;17.60;54.00
69054;DHT22;56125;52.242;4.756;2024-02-21T06:55:11;17.60;54.00
69054;DHT22;56125;52.242;4.756;2024-02-21T07:00:13;17.60;53.90
69054;DHT22;56125;52.242;4.756;2024-02-21T07:05:14;17.60;54.00
69054;DHT22;56125;52.242;4.756;2024-02-21T07:10:15;17.50;53.90
69054;DHT22;56125;52.242;4.756;2024-02-21T07:15:16;17.60;53.90
69054;DHT22;56125;52.242;4.756;2024-02-21T07:20:17;17.60;53.90
69054;DHT22;56125;52.242;4.756;2024-02-21T07:25:18;17.60;53.80
69054;DHT22;56125;52.242;4.756;2024-02-21T07:30:19;17.60;53.90
69054;DHT22;56125;52.242;4.756;2024-02-21T07:35:20;17.60;53.90
69054;DHT22;56125;52.242;4.756;2024-02-21T07:40:21;17.50;53.90
69054;DHT22;56125;52.242;4.756;2024-02-21T07:45:22;17.50;53.90
69054;DHT22;56125;52.242;4.756;2024-02-21T07:50:25;17.50;53.90
69054;DHT22;56125;52.242;4.756;2024-02-21T07:55:26;17.50;53.90
69054;DHT22;56125;52.242;4.756;2024-02-21T08:00:27;17.50;53.80
69054;DHT22;56125;52.242;4.756;2024-02-21T08:05:28;17.50;54.00
69054;DHT22;56125;52.242;4.756;2024-02-21T08:10:30;17.50;53.90
69054;DHT22;56125;52.242;4.756;2024-02-21T08:15:32;17.50;53.80
69054;DHT22;56125;52.242;4.756;2024-02-21T08:20:34;17.50;53.90
69054;DHT22;56125;52.242;4.756;2024-02-21T08:25:35;17.40;54.00
69054;DHT22;56125;52.242;4.756;2024-02-21T08:30:36;17.50;53.90
69054;DHT22;56125;52.242;4.756;2024-02-21T08:35:37;17.50;53.90
69054;DHT22;56125;52.242;4.756;2024-02-21T08:40:38;17.60;54.00
69054;DHT22;56125;52.242;4.756;2024-02-21T08:45:39;17.50;53.90
69054;DHT22;56125;52.242;4.756;2024-02-21T08:50:41;17.50;53.90
69054;DHT22;56125;52.242;4.756;2024-02-21T08:55:42;17.50;54.00
69054;DHT22;56125;52.242;4.756;2024-02-21T09:00:45;17.50;54.00
69054;DHT22;56125;52.242;4.756;2024-02-21T09:05:46;17.70;54.10
69054;DHT22;56125;52.242;4.756;2024-02-21T09:10:48;16.80;53.50
69054;DHT22;56125;52.242;4.756;2024-02-21T09:15:49;17.50;53.90
69054;DHT22;56125;52.242;4.756;2024-02-21T09:20:50;17.50;53.90
69054;DHT22;56125;52.242;4.756;2024-02-21T09:25:51;17.50;53.90
69054;DHT22;56125;52.242;4.756;2024-02-21T09:30:52;17.50;54.00
69054;DHT22;56125;52.242;4.756;2024-02-21T09:35:53;17.50;54.60
69054;DHT22;56125;52.242;4.756;2024-02-21T09:41:15;17.50;53.90
69054;DHT22;56125;52.242;4.756;2024-02-21T09:46:19;17.50;54.00
69054;DHT22;56125;52.242;4.756;2024-02-21T09:51:21;17.50;53.90
69054;DHT22;56125;52.242;4.756;2024-02-21T09:56:22;17.50;53.80
69054;DHT22;56125;52.242;4.756;2024-02-21T10:01:23;17.50;53.90
69054;DHT22;56125;52.242;4.756;2024-02-21T10:06:24;17.50;53.90
69054;DHT22;56125;52.242;4.756;2024-02-21T10:11:26;17.50;53.90
69054;DHT22;56125;52.242;4.756;2024-02-21T10:16:28;17.50;53.90
69054;DHT22;56125;52.242;4.756;2024-02-21T10:21:29;17.50;54.40
69054;DHT22;56125;52.242;4.756;2024-02-21T10:26:30;17.50;53.80
69054;DHT22;56125;52.242;4.756;2024-02-21T10:31:31;17.50;53.80
69054;DHT22;56125;52.242;4.756;2024-02-21T10:36:32;17.50;53.80
69054;DHT22;56125;52.242;4.756;2024-02-21T10:41:33;16.80;53.40
69054;DHT22;56125;52.242;4.756;2024-02-21T10:46:35;17.50;53.80
69054;DHT22;56125;52.242;4.756;2024-02-21T10:51:43;17.50;53.90
69054;DHT22;56125;52.242;4.756;2024-02-21T10:56:45;17.50;53.80
69054;DHT22;56125;52.242;4.756;2024-02-21T11:01:47;17.90;54.00
69054;DHT22;56125;52.242;4.756;2024-02-21T11:06:48;17.50;53.70
69054;DHT22;56125;52.242;4.756;2024-02-21T11:11:50;17.50;53.70
69054;DHT22;56125;52.242;4.756;2024-02-21T11:16:52;17.50;53.70
69054;DHT22;56125;52.242;4.756;2024-02-21T11:21:54;17.50;53.70
69054;DHT22;56125;52.242;4.756;2024-02-21T11:27:34;17.50;53.60
69054;DHT22;56125;52.242;4.756;2024-02-21T11:32:35;17.50;53.70
69054;DHT22;56125;52.242;4.756;2024-02-21T11:37:36;17.40;53.60
69054;DHT22;56125;52.242;4.756;2024-02-21T11:42:37;17.50;53.60
69054;DHT22;56125;52.242;4.756;2024-02-21T11:47:39;17.50;53.60
69054;DHT22;56125;52.242;4.756;2024-02-21T11:52:41;17.50;53.60
69054;DHT22;56125;52.242;4.756;2024-02-21T11:57:43;17.40;53.60
69054;DHT22;56125;52.242;4.756;2024-02-21T12:02:44;17.50;53.50
69054;DHT22;56125;52.242;4.756;2024-02-21T12:07:46;17.50;53.50
69054;DHT22;56125;52.242;4.756;2024-02-21T12:12:47;17.40;53.40
69054;DHT22;56125;52.242;4.756;2024-02-21T12:17:49;17.50;53.40
69054;DHT22;56125;52.242;4.756;2024-02-21T12:22:52;17.50;53.50
69054;DHT22;56125;52.242;4.756;2024-02-21T12:27:54;17.50;53.40
69054;DHT22;56125;52.242;4.756;2024-02-21T12:32:57;17.50;53.30
69054;DHT22;56125;52.242;4.756;2024-02-21T12:38:00;17.50;53.30
69054;DHT22;56125;52.242;4.756;2024-02-21T12:43:01;17.50;53.30
69054;DHT22;56125;52.242;4.756;2024-02-21T12:48:04;17.50;53.30
69054;DHT22;56125;52.242;4.756;2024-02-21T12:53:05;17.40;53.20
69054;DHT22;56125;52.242;4.756;2024-02-21T12:58:07;17.50;53.20
69054;DHT22;56125;52.242;4.756;2024-02-21T13:03:08;17.50;53.60
69054;DHT22;56125;52.242;4.756;2024-02-21T13:08:13;16.90;52.70
69054;DHT22;56125;52.242;4.756;2024-02-21T13:13:14;17.50;53.10
69054;DHT22;56125;52.242;4.756;2024-02-21T13:18:15;17.50;53.20
69054;DHT22;56125;52.242;4.756;2024-02-21T13:23:16;17.50;54.10
69054;DHT22;56125;52.242;4.756;2024-02-21T13:28:17;17.50;53.00
69054;DHT22;56125;52.242;4.756;2024-02-21T13:33:18;17.50;53.10
69054;DHT22;56125;52.242;4.756;2024-02-21T13:38:19;17.60;53.10
69054;DHT22;56125;52.242;4.756;2024-02-21T13:43:20;17.50;53.10
69054;DHT22;56125;52.242;4.756;2024-02-21T13:48:22;17.50;53.00
69054;DHT22;56125;52.242;4.756;2024-02-21T13:53:23;17.50;53.00
69054;DHT22;56125;52.242;4.756;2024-02-21T13:58:24;17.50;53.00
69054;DHT22;56125;52.242;4.756;2024-02-21T14:03:26;17.50;53.10
69054;DHT22;56125;52.242;4.756;2024-02-21T14:08:27;17.10;52.70
69054;DHT22;56125;52.242;4.756;2024-02-21T14:13:28;17.50;53.00
69054;DHT22;56125;52.242;4.756;2024-02-21T14:18:29;17.50;53.00
69054;DHT22;56125;52.242;4.756;2024-02-21T14:23:30;17.50;53.00
69054;DHT22;56125;52.242;4.756;2024-02-21T14:28:34;17.50;53.10
69054;DHT22;56125;52.242;4.756;2024-02-21T14:33:35;17.50;53.10
69054;DHT22;56125;52.242;4.756;2024-02-21T14:38:36;17.50;53.10
69054;DHT22;56125;52.242;4.756;2024-02-21T14:43:38;18.10;53.50
69054;DHT22;56125;52.242;4.756;2024-02-21T14:48:39;17.50;53.40
69054;DHT22;56125;52.242;4.756;2024-02-21T14:53:40;17.50;53.40
69054;DHT22;56125;52.242;4.756;2024-02-21T14:58:42;17.50;53.50
69054;DHT22;56125;52.242;4.756;2024-02-21T15:03:43;17.50;53.60
69054;DHT22;56125;52.242;4.756;2024-02-21T15:08:44;17.50;53.60
69054;DHT22;56125;52.242;4.756;2024-02-21T15:13:45;17.50;53.60
69054;DHT22;56125;52.242;4.756;2024-02-21T15:18:46;18.20;54.10
69054;DHT22;56125;52.242;4.756;2024-02-21T15:23:47;17.50;53.80
69054;DHT22;56125;52.242;4.756;2024-02-21T15:28:48;17.60;53.90
69054;DHT22;56125;52.242;4.756;2024-02-21T15:33:51;17.50;53.90
69054;DHT22;56125;52.242;4.756;2024-02-21T15:38:52;17.50;54.00
69054;DHT22;56125;52.242;4.756;2024-02-21T15:43:53;17.50;54.30
69054;DHT22;56125;52.242;4.756;2024-02-21T15:48:55;17.50;54.00
69054;DHT22;56125;52.242;4.756;2024-02-21T15:53:58;17.50;54.10
69054;DHT22;56125;52.242;4.756;2024-02-21T15:58:59;17.50;54.10
69054;DHT22;56125;52.242;4.756;2024-02-21T16:04:00;17.50;54.10
69054;DHT22;56125;52.242;4.756;2024-02-21T16:09:01;17.60;54.20
69054;DHT22;56125;52.242;4.756;2024-02-21T16:14:05;17.50;54.10
69054;DHT22;56125;52.242;4.756;2024-02-21T16:19:07;17.50;54.30
69054;DHT22;56125;52.242;4.756;2024-02-21T16:24:08;17.40;54.20
69054;DHT22;56125;52.242;4.756;2024-02-21T16:29:10;17.50;54.20
69054;DHT22;56125;52.242;4.756;2024-02-21T16:34:11;17.50;54.30
69054;DHT22;56125;52.242;4.756;2024-02-21T16:39:12;17.70;56.20
69054;DHT22;56125;52.242;4.756;2024-02-21T16:44:13;17.60;56.80
69054;DHT22;56125;52.242;4.756;2024-02-21T16:49:14;17.60;57.80
69054;DHT22;56125;52.242;4.756;2024-02-21T16:54:22;17.70;59.10
69054;DHT22;56125;52.242;4.756;2024-02-21T16:59:23;18.10;59.50
69054;DHT22;56125;52.242;4.756;2024-02-21T17:04:24;17.80;59.00
69054;DHT22;56125;52.242;4.756;2024-02-21T17:09:25;17.90;58.80
69054;DHT22;56125;52.242;4.756;2024-02-21T17:14:26;17.90;58.90
69054;DHT22;56125;52.242;4.756;2024-02-21T17:19:27;18.00;59.10
69054;DHT22;56125;52.242;4.756;2024-02-21T17:24:28;18.00;58.80
69054;DHT22;56125;52.242;4.756;2024-02-21T17:29:30;17.10;58.80
69054;DHT22;56125;52.242;4.756;2024-02-21T17:34:31;17.90;61.60
69054;DHT22;56125;52.242;4.756;2024-02-21T17:39:32;17.80;61.90
69054;DHT22;56125;52.242;4.756;2024-02-21T17:44:33;17.80;62.00
69054;DHT22;56125;52.242;4.756;2024-02-21T17:49:37;17.80;62.00
69054;DHT22;56125;52.242;4.756;2024-02-21T17:54:38;18.30;62.40
69054;DHT22;56125;52.242;4.756;2024-02-21T17:59:41;17.70;62.20
69054;DHT22;56125;52.242;4.756;2024-02-21T18:04:42;17.70;62.20
69054;DHT22;56125;52.242;4.756;2024-02-21T18:09:43;17.70;62.30
69054;DHT22;56125;52.242;4.756;2024-02-21T18:14:45;17.70;62.30
69054;DHT22;56125;52.242;4.756;2024-02-21T18:19:46;17.70;62.20
69054;DHT22;56125;52.242;4.756;2024-02-21T18:24:47;18.20;62.30
69054;DHT22;56125;52.242;4.756;2024-02-21T18:29:49;17.70;62.20
69054;DHT22;56125;52.242;4.756;2024-02-21T18:34:50;17.70;61.90
69054;DHT22;56125;52.242;4.756;2024-02-21T18:39:51;17.70;61.90
69054;DHT22;56125;52.242;4.756;2024-02-21T18:44:52;17.70;62.20
69054;DHT22;56125;52.242;4.756;2024-02-21T18:49:54;17.70;62.10
69054;DHT22;56125;52.242;4.756;2024-02-21T18:54:55;17.70;62.30
69054;DHT22;56125;52.242;4.756;2024-02-21T18:59:57;17.70;62.20
69054;DHT22;56125;52.242;4.756;2024-02-21T19:04:58;17.80;62.10
69054;DHT22;56125;52.242;4.756;2024-02-21T19:09:59;17.70;62.00
69054;DHT22;56125;52.242;4.756;2024-02-21T19:15:00;17.70;62.00
69054;DHT22;56125;52.242;4.756;2024-02-21T19:20:01;17.70;62.30
69054;DHT22;56125;52.242;4.756;2024-02-21T19:25:03;17.70;62.30
69054;DHT22;56125;52.242;4.756;2024-02-21T19:30:08;17.70;61.90
69054;DHT22;56125;52.242;4.756;2024-02-21T19:35:11;17.80;60.40
69054;DHT22;56125;52.242;4.756;2024-02-21T19:40:12;17.80;64.40
69054;DHT22;56125;52.242;4.756;2024-02-21T19:45:13;17.80;65.00
69054;DHT22;56125;52.242;4.756;2024-02-21T19:50:15;17.80;64.90
69054;DHT22;56125;52.242;4.756;2024-02-21T19:55:21;17.80;65.20
69054;DHT22;56125;52.242;4.756;2024-02-21T20:00:23;17.80;65.60
69054;DHT22;56125;52.242;4.756;2024-02-21T20:05:24;17.80;65.70
69054;DHT22;56125;52.242;4.756;2024-02-21T20:10:25;17.80;65.80
69054;DHT22;56125;52.242;4.756;2024-02-21T20:15:26;17.80;66.00
69054;DHT22;56125;52.242;4.756;2024-02-21T20:20:29;17.80;66.00
69054;DHT22;56125;52.242;4.756;2024-02-21T20:25:31;17.80;65.90
69054;DHT22;56125;52.242;4.756;2024-02-21T20:30:32;17.80;66.20
69054;DHT22;56125;52.242;4.756;2024-02-21T20:35:33;17.80;66.10
69054;DHT22;56125;52.242;4.756;2024-02-21T20:40:34;17.80;66.40
69054;DHT22;56125;52.242;4.756;2024-02-21T20:45:35;17.80;66.60
69054;DHT22;56125;52.242;4.756;2024-02-21T20:50:37;17.80;66.60
69054;DHT22;56125;52.242;4.756;2024-02-21T20:55:38;17.80;66.80
69054;DHT22;56125;52.242;4.756;2024-02-21T21:00:40;17.80;66.70
69054;DHT22;56125;52.242;4.756;2024-02-21T21:05:41;17.80;66.90
69054;DHT22;56125;52.242;4.756;2024-02-21T21:10:43;17.80;66.80
69054;DHT22;56125;52.242;4.756;2024-02-21T21:15:44;17.80;67.00
69054;DHT22;56125;52.242;4.756;2024-02-21T21:20:46;17.80;66.90
69054;DHT22;56125;52.242;4.756;2024-02-21T21:25:47;17.80;67.10
69054;DHT22;56125;52.242;4.756;2024-02-21T21:30:48;17.80;67.00
69054;DHT22;56125;52.242;4.756;2024-02-21T21:35:50;17.90;67.30
69054;DHT22;56125;52.242;4.756;2024-02-21T21:40:53;17.80;66.60
69054;DHT22;56125;52.242;4.756;2024-02-21T21:45:54;17.80;66.50
69054;DHT22;56125;52.242;4.756;2024-02-21T21:50:55;17.80;66.00
69054;DHT22;56125;52.242;4.756;2024-02-21T21:55:56;17.70;66.00
69054;DHT22;56125;52.242;4.756;2024-02-21T22:00:57;17.70;65.90
69054;DHT22;56125;52.242;4.756;2024-02-21T22:05:58;17.70;65.90
69054;DHT22;56125;52.242;4.756;2024-02-21T22:10:59;17.70;65.80
69054;DHT22;56125;52.242;4.756;2024-02-21T22:16:00;17.70;66.00
69054;DHT22;56125;52.242;4.756;2024-02-21T22:21:01;17.70;66.10
69054;DHT22;56125;52.242;4.756;2024-02-21T22:26:03;17.70;66.10
69054;DHT22;56125;52.242;4.756;2024-02-21T22:31:05;17.70;66.30
69054;DHT22;56125;52.242;4.756;2024-02-21T22:36:07;17.60;65.90
69054;DHT22;56125;52.242;4.756;2024-02-21T22:41:08;17.60;66.50
69054;DHT22;56125;52.242;4.756;2024-02-21T22:46:12;17.60;66.00
69054;DHT22;56125;52.242;4.756;2024-02-21T22:51:13;17.60;65.90
69054;DHT22;56125;52.242;4.756;2024-02-21T22:56:15;17.60;66.00
69054;DHT22;56125;52.242;4.756;2024-02-21T23:01:16;17.60;66.00
69054;DHT22;56125;52.242;4.756;2024-02-21T23:06:18;17.60;65.80
69054;DHT22;56125;52.242;4.756;2024-02-21T23:11:20;17.60;65.80
69054;DHT22;56125;52.242;4.756;2024-02-21T23:16:22;17.60;66.00
69054;DHT22;56125;52.242;4.756;2024-02-21T23:21:23;17.60;65.90
69054;DHT22;56125;52.242;4.756;2024-02-21T23:26:30;17.60;66.00
69054;DHT22;56125;52.242;4.756;2024-02-21T23:31:32;17.60;65.80
69054;DHT22;56125;52.242;4.756;2024-02-21T23:36:33;17.60;65.80
69054;DHT22;56125;52.242;4.756;2024-02-21T23:41:34;17.60;65.80
69054;DHT22;56125;52.242;4.756;2024-02-21T23:46:35;17.60;65.90
69054;DHT22;56125;52.242;4.756;2024-02-21T23:51:36;17.50;66.80
69054;DHT22;56125;52.242;4.756;2024-02-21T23:56:44;17.60;65.80
